createdAt,value
2018-06-05T00:00:14.443Z,3.80
2018-06-05T00:02:43.242Z,4.27
2018-06-05T00:05:12.002Z,3.90
2018-06-05T00:07:40.755Z,3.83
2018-06-05T00:10:09.707Z,3.50
2018-06-05T00:12:38.455Z,3.43
2018-06-05T00:15:07.199Z,3.80
2018-06-05T00:17:36.015Z,3.63
2018-06-05T00:20:04.841Z,3.60
2018-06-05T00:22:33.687Z,4.10
2018-06-05T00:25:02.668Z,4.03
2018-06-05T00:27:32.056Z,4.27
2018-06-05T00:30:00.468Z,4.77
2018-06-05T00:32:29.342Z,5.00
2018-06-05T00:34:58.167Z,5.13
2018-06-05T00:37:27.135Z,5.40
2018-06-05T00:40:01.054Z,4.87
2018-06-05T00:42:29.788Z,4.93
2018-06-05T00:44:58.533Z,4.77
2018-06-05T00:47:27.249Z,4.50
2018-06-05T00:49:55.976Z,5.00
2018-06-05T00:52:24.774Z,4.90
2018-06-05T00:54:53.531Z,4.33
2018-06-05T00:57:22.384Z,5.17
2018-06-05T00:59:51.225Z,5.47
2018-06-05T01:02:19.963Z,4.50
2018-06-05T01:04:48.675Z,4.77
2018-06-05T01:07:17.526Z,4.53
2018-06-05T01:09:46.248Z,4.40
2018-06-05T01:12:15.049Z,4.00
2018-06-05T01:14:43.782Z,4.07
2018-06-05T01:17:12.204Z,4.07
2018-06-05T01:19:41.050Z,3.93
2018-06-05T01:22:09.904Z,3.93
2018-06-05T01:24:38.642Z,3.77
2018-06-05T01:27:11.541Z,4.50
2018-06-05T01:29:40.301Z,4.30
2018-06-05T01:32:09.284Z,3.83
2018-06-05T01:34:38.788Z,4.30
2018-06-05T01:37:07.619Z,3.53
2018-06-05T01:39:36.297Z,4.40
2018-06-05T01:42:05.378Z,4.07
2018-06-05T01:44:34.231Z,4.00
2018-06-05T01:47:03.058Z,4.30
2018-06-05T01:49:37.078Z,4.20
2018-06-05T01:52:05.956Z,4.70
2018-06-05T01:54:34.825Z,4.70
2018-06-05T01:57:03.544Z,4.50
2018-06-05T01:59:32.257Z,4.60
2018-06-05T02:02:01.074Z,4.63
2018-06-05T02:04:29.819Z,4.87
2018-06-05T02:06:58.615Z,5.27
2018-06-05T02:09:27.526Z,4.93
2018-06-05T02:11:56.337Z,5.60
2018-06-05T02:14:25.143Z,4.50
2018-06-05T02:16:54.013Z,4.60
2018-06-05T02:19:22.746Z,4.53
2018-06-05T02:21:51.611Z,4.57
2018-06-05T02:24:20.298Z,4.60
2018-06-05T02:26:49.190Z,4.23
2018-06-05T02:29:17.921Z,4.50
2018-06-05T02:31:46.763Z,5.10
2018-06-05T02:34:15.605Z,5.03
2018-06-05T02:36:44.352Z,4.53
2018-06-05T02:39:13.290Z,5.53
2018-06-05T02:41:42.070Z,5.50
2018-06-05T02:44:10.903Z,5.03
2018-06-05T02:46:39.720Z,4.60
2018-06-05T02:49:08.626Z,4.63
2018-06-05T02:51:37.497Z,5.37
2018-06-05T02:54:06.407Z,4.60
2018-06-05T02:56:35.275Z,4.60
2018-06-05T02:59:04.060Z,4.40
2018-06-05T03:01:32.912Z,4.50
2018-06-05T03:04:01.728Z,4.70
2018-06-05T03:06:30.218Z,4.70
2018-06-05T03:08:59.142Z,4.87
2018-06-05T03:11:27.600Z,4.93
2018-06-05T03:13:56.054Z,4.90
2018-06-05T03:16:25.287Z,4.40
2018-06-05T03:18:54.179Z,4.60
2018-06-05T03:21:22.939Z,4.30
2018-06-05T03:23:51.733Z,4.90
2018-06-05T03:26:20.443Z,4.27
2018-06-05T03:28:49.191Z,4.90
2018-06-05T03:31:17.918Z,4.43
2018-06-05T03:33:46.652Z,4.93
2018-06-05T03:36:15.544Z,4.43
2018-06-05T03:38:44.419Z,4.50
2018-06-05T03:41:18.419Z,4.70
2018-06-05T03:43:47.925Z,4.07
2018-06-05T03:46:16.755Z,4.17
2018-06-05T03:48:45.527Z,4.27
2018-06-05T03:51:14.275Z,3.70
2018-06-05T03:53:43.072Z,4.07
2018-06-05T03:56:12.022Z,4.37
2018-06-05T03:58:40.980Z,3.57
2018-06-05T04:01:09.558Z,4.30
2018-06-05T04:03:38.450Z,4.50
2018-06-05T04:06:07.215Z,4.00
2018-06-05T04:08:36.080Z,3.70
2018-06-05T04:11:04.872Z,3.93
2018-06-05T04:13:33.499Z,4.80
2018-06-05T04:16:02.508Z,4.30
2018-06-05T04:18:31.273Z,3.77
2018-06-05T04:21:00.111Z,3.80
2018-06-05T04:23:28.925Z,3.97
2018-06-05T04:25:57.782Z,3.73
2018-06-05T04:28:26.555Z,4.23
2018-06-05T04:30:55.347Z,4.97
2018-06-05T04:33:24.191Z,4.20
2018-06-05T04:35:53.731Z,4.60
2018-06-05T04:38:22.522Z,4.60
2018-06-05T04:40:52.053Z,4.93
2018-06-05T04:43:20.823Z,4.40
2018-06-05T04:45:49.960Z,4.77
2018-06-05T04:48:18.678Z,4.10
2018-06-05T04:50:47.299Z,4.10
2018-06-05T04:53:15.997Z,4.20
2018-06-05T04:55:44.651Z,4.47
2018-06-05T04:58:13.323Z,4.10
2018-06-05T05:00:41.880Z,4.50
2018-06-05T05:03:10.486Z,4.60
2018-06-05T05:05:39.050Z,4.20
2018-06-05T05:08:07.655Z,4.27
2018-06-05T05:10:36.430Z,4.70
2018-06-05T05:13:05.126Z,4.23
2018-06-05T05:15:33.911Z,4.50
2018-06-05T05:18:02.616Z,4.47
2018-06-05T05:20:31.371Z,4.37
2018-06-05T05:23:00.038Z,3.83
2018-06-05T05:25:28.717Z,4.57
2018-06-05T05:27:57.022Z,3.97
2018-06-05T05:30:26.390Z,4.43
2018-06-05T05:32:54.682Z,4.50
2018-06-05T05:35:23.417Z,4.77
2018-06-05T05:37:52.047Z,5.07
2018-06-05T05:40:20.720Z,4.60
2018-06-05T05:42:49.346Z,4.17
2018-06-05T05:45:17.912Z,5.40
2018-06-05T05:47:46.883Z,5.30
2018-06-05T05:50:15.664Z,5.90
2018-06-05T05:52:44.250Z,6.07
2018-06-05T05:55:12.822Z,5.93
2018-06-05T05:57:41.465Z,5.63
2018-06-05T06:00:10.031Z,6.20
2018-06-05T06:02:38.569Z,7.87
2018-06-05T06:05:07.259Z,7.97
2018-06-05T06:07:35.802Z,9.73
2018-06-05T06:10:04.319Z,7.60
2018-06-05T06:12:32.882Z,6.23
2018-06-05T06:15:01.414Z,6.97
2018-06-05T06:17:30.190Z,6.43
2018-06-05T06:19:58.812Z,4.77
2018-06-05T06:22:27.379Z,5.13
2018-06-05T06:24:55.951Z,4.83
2018-06-05T06:27:24.399Z,5.63
2018-06-05T06:29:52.626Z,5.23
2018-06-05T06:32:21.347Z,5.90
2018-06-05T06:34:49.852Z,5.10
2018-06-05T06:37:18.543Z,4.70
2018-06-05T06:39:47.110Z,4.63
2018-06-05T06:42:28.854Z,5.20
2018-06-05T06:44:57.421Z,6.57
2018-06-05T06:47:25.972Z,5.77
2018-06-05T06:49:54.494Z,6.27
2018-06-05T06:52:23.174Z,5.40
2018-06-05T06:54:51.741Z,5.63
2018-06-05T06:57:20.333Z,5.97
2018-06-05T06:59:48.794Z,5.60
2018-06-05T07:02:17.395Z,5.50
2018-06-05T07:04:45.940Z,5.37
2018-06-05T07:07:14.121Z,4.50
2018-06-05T07:09:42.662Z,4.60
2018-06-05T07:12:11.485Z,4.60
2018-06-05T07:14:40.044Z,3.93
2018-06-05T07:17:08.641Z,4.10
2018-06-05T07:19:37.149Z,4.40
2018-06-05T07:22:05.927Z,5.23
2018-06-05T07:24:34.478Z,4.93
2018-06-05T07:27:03.052Z,5.83
2018-06-05T07:29:31.772Z,4.63
2018-06-05T07:32:00.794Z,5.40
2018-06-05T07:34:29.482Z,4.80
2018-06-05T07:36:58.117Z,5.30
2018-06-05T07:39:26.599Z,6.00
2018-06-05T07:41:55.200Z,5.63
2018-06-05T07:44:24.018Z,5.37
2018-06-05T07:46:52.188Z,5.70
2018-06-05T07:49:20.732Z,6.10
2018-06-05T07:51:49.383Z,5.70
2018-06-05T07:54:17.892Z,5.73
2018-06-05T07:56:46.470Z,5.97
2018-06-05T07:59:15.167Z,5.40
2018-06-05T08:01:43.677Z,7.57
2018-06-05T08:04:12.334Z,7.00
2018-06-05T08:06:40.989Z,6.67
2018-06-05T08:09:09.928Z,5.30
2018-06-05T08:11:38.596Z,5.80
2018-06-05T08:14:07.254Z,8.13
2018-06-05T08:16:35.505Z,6.63
2018-06-05T08:19:04.131Z,5.77
2018-06-05T08:21:32.764Z,4.83
2018-06-05T08:24:01.430Z,4.90
2018-06-05T08:27:06.934Z,4.63
2018-06-05T08:29:35.477Z,5.10
2018-06-05T08:32:04.198Z,5.50
2018-06-05T08:34:32.870Z,5.30
2018-06-05T08:37:01.498Z,4.67
2018-06-05T08:39:30.267Z,4.53
2018-06-05T08:41:58.865Z,4.13
2018-06-05T08:44:27.491Z,4.40
2018-06-05T08:46:56.123Z,4.47
2018-06-05T08:49:24.831Z,4.57
2018-06-05T08:51:53.483Z,5.03
2018-06-05T08:54:22.118Z,5.30
2018-06-05T08:56:50.758Z,5.17
2018-06-05T08:59:19.455Z,5.00
2018-06-05T09:01:48.110Z,4.83
2018-06-05T09:04:16.695Z,4.37
2018-06-05T09:06:45.395Z,4.07
2018-06-05T09:09:13.928Z,4.10
2018-06-05T09:11:42.484Z,4.50
2018-06-05T09:14:11.211Z,4.50
2018-06-05T09:16:39.745Z,3.70
2018-06-05T09:19:08.421Z,4.50
2018-06-05T09:21:37.180Z,4.60
2018-06-05T09:24:05.933Z,4.40
2018-06-05T09:26:34.700Z,4.87
2018-06-05T09:29:03.592Z,4.53
2018-06-05T09:31:32.373Z,4.47
2018-06-05T09:34:01.179Z,4.30
2018-06-05T09:36:30.078Z,4.00
2018-06-05T09:38:58.904Z,3.97
2018-06-05T09:41:27.764Z,5.10
2018-06-05T09:43:56.633Z,4.70
2018-06-05T09:46:25.143Z,4.47
2018-06-05T09:48:53.580Z,4.20
2018-06-05T09:51:27.938Z,4.27
2018-06-05T09:53:56.624Z,3.77
2018-06-05T09:56:25.479Z,3.97
2018-06-05T09:58:53.997Z,4.37
2018-06-05T10:01:22.583Z,4.77
2018-06-05T10:03:51.163Z,4.27
2018-06-05T10:06:20.196Z,4.13
2018-06-05T10:08:50.178Z,4.27
2018-06-05T10:11:19.027Z,4.00
2018-06-05T10:13:47.918Z,4.07
2018-06-05T10:16:16.744Z,4.50
2018-06-05T10:18:45.529Z,4.20
2018-06-05T10:21:14.284Z,3.60
2018-06-05T10:23:43.192Z,4.40
2018-06-05T10:26:11.875Z,4.33
2018-06-05T10:28:40.788Z,3.93
2018-06-05T10:31:09.722Z,4.37
2018-06-05T10:33:38.514Z,4.37
2018-06-05T10:36:07.318Z,4.40
2018-06-05T10:38:35.775Z,4.30
2018-06-05T10:41:04.851Z,4.27
2018-06-05T10:43:33.298Z,4.33
2018-06-05T10:46:02.166Z,4.60
2018-06-05T10:48:31.448Z,4.40
2018-06-05T10:51:00.332Z,3.80
2018-06-05T10:53:29.218Z,4.70
2018-06-05T10:55:58.033Z,4.43
2018-06-05T10:58:26.739Z,4.83
2018-06-05T11:00:55.492Z,4.63
2018-06-05T11:03:24.288Z,4.40
2018-06-05T11:05:52.959Z,4.57
2018-06-05T11:08:21.603Z,5.13
2018-06-05T11:10:50.174Z,4.57
2018-06-05T11:13:18.749Z,4.87
2018-06-05T11:15:47.293Z,5.37
2018-06-05T11:18:16.295Z,4.80
2018-06-05T11:20:44.800Z,4.60
2018-06-05T11:23:13.286Z,4.90
2018-06-05T11:25:41.894Z,4.97
2018-06-05T11:28:10.649Z,4.80
2018-06-05T11:30:39.294Z,4.40
2018-06-05T11:33:07.824Z,4.67
2018-06-05T11:35:36.572Z,4.97
2018-06-05T11:38:05.284Z,5.47
2018-06-05T11:40:33.912Z,5.17
2018-06-05T11:43:02.523Z,4.90
2018-06-05T11:45:31.118Z,4.70
2018-06-05T11:47:59.756Z,4.87
2018-06-05T11:50:28.607Z,4.83
2018-06-05T11:52:57.545Z,4.67
2018-06-05T11:55:26.459Z,5.40
2018-06-05T11:57:55.198Z,4.80
2018-06-05T12:00:23.685Z,4.80
2018-06-05T12:02:52.496Z,5.27
2018-06-05T12:05:21.285Z,4.80
2018-06-05T12:07:50.100Z,5.10
2018-06-05T12:10:18.803Z,4.90
2018-06-05T12:12:47.579Z,4.67
2018-06-05T12:15:16.461Z,4.73
2018-06-05T12:17:45.313Z,5.50
2018-06-05T12:20:14.201Z,4.87
2018-06-05T12:22:43.006Z,4.97
2018-06-05T12:25:11.865Z,5.67
2018-06-05T12:27:40.752Z,5.37
2018-06-05T12:30:09.577Z,4.97
2018-06-05T12:32:38.497Z,5.40
2018-06-05T12:35:07.236Z,5.10
2018-06-05T12:37:35.979Z,5.20
2018-06-05T12:40:04.778Z,5.00
2018-06-05T12:42:33.737Z,5.00
2018-06-05T12:45:02.545Z,4.40
2018-06-05T12:47:31.319Z,4.50
2018-06-05T12:50:00.111Z,4.47
2018-06-05T12:52:29.079Z,4.60
2018-06-05T12:54:57.918Z,5.08
2018-06-05T12:57:26.617Z,4.53
2018-06-05T12:59:55.444Z,4.83
2018-06-05T13:02:24.428Z,4.05
2018-06-05T13:04:53.194Z,4.42
2018-06-05T13:07:22.009Z,4.47
2018-06-05T13:09:50.865Z,4.85
2018-06-05T13:12:19.822Z,4.40
2018-06-05T13:14:48.664Z,4.30
2018-06-05T13:17:17.557Z,4.53
2018-06-05T13:19:45.929Z,4.45
2018-06-05T13:22:14.789Z,4.03
2018-06-05T13:24:44.275Z,4.37
2018-06-05T13:27:13.151Z,4.65
2018-06-05T13:29:41.980Z,4.58
2018-06-05T13:32:10.824Z,4.53
2018-06-05T13:34:40.449Z,4.72
2018-06-05T13:37:09.425Z,4.42
2018-06-05T13:39:38.281Z,4.37
2018-06-05T13:42:07.096Z,4.87
2018-06-05T13:44:35.864Z,4.10
2018-06-05T13:47:04.783Z,4.37
2018-06-05T13:49:33.615Z,4.70
2018-06-05T13:52:02.442Z,4.40
2018-06-05T13:54:31.360Z,4.22
2018-06-05T13:57:00.146Z,3.83
2018-06-05T13:59:28.712Z,3.98
2018-06-05T14:01:57.556Z,4.97
2018-06-05T14:04:26.448Z,4.33
2018-06-05T14:06:55.222Z,4.10
2018-06-05T14:09:24.010Z,5.05
2018-06-05T14:11:53.819Z,4.67
2018-06-05T14:14:22.639Z,4.22
2018-06-05T14:16:51.405Z,4.28
2018-06-05T14:19:20.174Z,4.53
2018-06-05T14:21:48.985Z,4.55
2018-06-05T14:24:17.823Z,4.25
2018-06-05T14:26:46.691Z,4.10
2018-06-05T14:29:15.582Z,4.10
2018-06-05T14:31:44.575Z,4.78
2018-06-05T14:34:13.438Z,5.30
2018-06-05T14:36:42.244Z,4.72
2018-06-05T14:39:12.095Z,5.17
2018-06-05T14:41:40.941Z,4.40
2018-06-05T14:44:09.791Z,4.83
2018-06-05T14:46:38.599Z,4.67
2018-06-05T14:49:07.403Z,5.90
2018-06-05T14:51:36.240Z,4.12
2018-06-05T14:54:05.164Z,4.42
2018-06-05T14:56:33.912Z,4.17
2018-06-05T14:59:02.804Z,4.40
2018-06-05T15:01:31.200Z,4.22
2018-06-05T15:03:59.644Z,5.30
2018-06-05T15:06:28.543Z,4.35
2018-06-05T15:08:57.319Z,5.00
2018-06-05T15:11:26.204Z,4.50
2018-06-05T15:13:54.916Z,4.50
2018-06-05T15:16:23.858Z,4.37
2018-06-05T15:18:52.577Z,4.58
2018-06-05T15:21:21.856Z,4.70
2018-06-05T15:23:50.715Z,5.28
2018-06-05T15:26:19.450Z,5.00
2018-06-05T15:28:48.146Z,4.90
2018-06-05T15:31:16.969Z,5.40
2018-06-05T15:33:45.396Z,5.07
2018-06-05T15:36:14.214Z,5.40
2018-06-05T15:38:42.961Z,5.27
2018-06-05T15:41:11.762Z,5.43
2018-06-05T15:43:41.003Z,5.20
2018-06-05T15:46:09.967Z,5.03
2018-06-05T15:48:38.830Z,5.50
2018-06-05T15:51:08.115Z,5.10
2018-06-05T15:53:36.936Z,5.07
2018-06-05T15:56:05.690Z,4.80
2018-06-05T15:58:34.621Z,5.53
2018-06-05T16:01:03.414Z,5.60
2018-06-05T16:03:31.938Z,6.20
2018-06-05T16:06:00.501Z,7.30
2018-06-05T16:08:29.058Z,7.40
2018-06-05T16:10:57.556Z,6.33
2018-06-05T16:13:26.096Z,6.47
2018-06-05T16:15:54.711Z,4.77
2018-06-05T16:18:23.563Z,3.83
2018-06-05T16:20:52.201Z,3.70
2018-06-05T16:23:20.780Z,3.40
2018-06-05T16:25:49.530Z,3.77
2018-06-05T16:28:19.003Z,3.90
2018-06-05T16:30:47.718Z,4.07
2018-06-05T16:33:16.351Z,4.47
2018-06-05T16:35:44.913Z,4.03
2018-06-05T16:38:13.496Z,4.00
2018-06-05T16:40:42.074Z,4.23
2018-06-05T16:43:10.729Z,3.83
2018-06-05T16:45:39.246Z,4.03
2018-06-05T16:48:07.779Z,3.23
2018-06-05T16:50:36.503Z,3.40
2018-06-05T16:53:05.112Z,4.10
2018-06-05T16:55:33.667Z,4.17
2018-06-05T16:58:02.118Z,4.40
2018-06-05T17:00:30.682Z,5.23
2018-06-05T17:02:59.259Z,4.70
2018-06-05T17:05:27.904Z,5.70
2018-06-05T17:07:56.495Z,4.97
2018-06-05T17:10:25.055Z,4.70
2018-06-05T17:12:54.345Z,5.23
2018-06-05T17:15:23.103Z,4.83
2018-06-05T17:17:51.661Z,4.40
2018-06-05T17:20:20.298Z,4.97
2018-06-05T17:22:48.921Z,4.67
2018-06-05T17:25:17.583Z,4.90
2018-06-05T17:27:46.251Z,4.73
2018-06-05T17:30:14.863Z,5.57
2018-06-05T17:32:43.508Z,4.13
2018-06-05T17:35:12.180Z,4.80
2018-06-05T17:37:40.807Z,4.90
2018-06-05T17:40:09.419Z,4.53
2018-06-05T17:42:38.187Z,5.10
2018-06-05T17:45:06.952Z,5.57
2018-06-05T17:47:35.194Z,21.80
2018-06-05T17:50:03.747Z,12.03
2018-06-05T17:52:32.619Z,9.93
2018-06-05T17:55:01.130Z,7.80
2018-06-05T17:57:29.665Z,4.80
2018-06-05T17:59:58.222Z,5.33
2018-06-05T18:02:26.739Z,20.60
2018-06-05T18:04:55.279Z,5.80
2018-06-05T18:07:23.905Z,5.20
2018-06-05T18:09:52.732Z,5.77
2018-06-05T18:12:21.319Z,5.80
2018-06-05T18:14:49.908Z,5.93
2018-06-05T18:17:18.522Z,6.30
2018-06-05T18:19:47.068Z,6.37
2018-06-05T18:22:15.673Z,6.27
2018-06-05T18:24:44.253Z,6.10
2018-06-05T18:27:12.773Z,5.80
2018-06-05T18:29:41.257Z,5.90
2018-06-05T18:32:10.166Z,4.87
2018-06-05T18:34:38.724Z,4.13
2018-06-05T18:37:07.345Z,5.83
2018-06-05T18:39:35.879Z,5.87
2018-06-05T18:42:04.588Z,5.30
2018-06-05T18:44:33.178Z,6.90
2018-06-05T18:47:01.647Z,5.93
2018-06-05T18:49:30.121Z,7.20
2018-06-05T18:52:03.712Z,5.23
2018-06-05T18:54:32.324Z,5.70
2018-06-05T18:57:00.917Z,5.03
2018-06-05T18:59:29.437Z,4.70
2018-06-05T19:01:57.978Z,4.97
2018-06-05T19:04:26.627Z,5.20
2018-06-05T19:06:55.147Z,5.40
2018-06-05T19:09:23.995Z,5.20
2018-06-05T19:11:52.508Z,5.57
2018-06-05T19:14:21.036Z,6.57
2018-06-05T19:16:49.546Z,6.17
2018-06-05T19:19:18.039Z,5.23
2018-06-05T19:21:46.634Z,6.37
2018-06-05T19:24:15.355Z,5.60
2018-06-05T19:26:43.895Z,5.60
2018-06-05T19:29:12.505Z,6.37
2018-06-05T19:31:41.094Z,6.37
2018-06-05T19:34:09.731Z,6.00
2018-06-05T19:36:38.559Z,5.70
2018-06-05T19:39:08.452Z,5.80
2018-06-05T19:41:37.083Z,5.60
2018-06-05T19:44:05.748Z,5.97
2018-06-05T19:46:34.452Z,5.27
2018-06-05T19:49:03.103Z,6.10
2018-06-05T19:51:31.710Z,4.53
2018-06-05T19:54:00.317Z,5.03
2018-06-05T19:56:29.064Z,5.07
2018-06-05T19:58:57.724Z,4.97
2018-06-05T20:01:26.270Z,5.40
2018-06-05T20:03:54.872Z,6.00
2018-06-05T20:06:23.561Z,5.50
2018-06-05T20:08:52.175Z,5.10
2018-06-05T20:11:20.725Z,5.30
2018-06-05T20:13:49.373Z,5.00
2018-06-05T20:16:18.031Z,4.80
2018-06-05T20:18:46.642Z,4.97
2018-06-05T20:21:15.295Z,5.20
2018-06-05T20:23:44.025Z,4.67
2018-06-05T20:26:13.576Z,5.20
2018-06-05T20:28:42.615Z,4.90
2018-06-05T20:31:12.347Z,5.13
2018-06-05T20:33:40.861Z,4.63
2018-06-05T20:36:09.808Z,4.60
2018-06-05T20:38:38.638Z,4.77
2018-06-05T20:41:07.537Z,4.80
2018-06-05T20:43:36.294Z,5.30
2018-06-05T20:46:05.743Z,4.13
2018-06-05T20:48:34.543Z,4.30
2018-06-05T20:51:03.076Z,4.40
2018-06-05T20:53:31.974Z,4.23
2018-06-05T20:56:00.744Z,4.70
2018-06-05T20:58:29.515Z,4.20
2018-06-05T21:00:58.450Z,4.47
2018-06-05T21:03:27.447Z,3.73
2018-06-05T21:05:56.364Z,3.50
2018-06-05T21:08:26.641Z,4.20
2018-06-05T21:11:14.488Z,4.10
2018-06-05T21:13:43.535Z,3.80
2018-06-05T21:16:13.577Z,3.80
2018-06-05T21:18:43.996Z,3.67
2018-06-05T21:21:12.944Z,3.50
2018-06-05T21:23:41.806Z,3.53
2018-06-05T21:26:10.774Z,3.93
2018-06-05T21:28:39.600Z,3.30
2018-06-05T21:31:08.606Z,4.27
2018-06-05T21:33:37.775Z,3.47
2018-06-05T21:36:07.664Z,3.80
2018-06-05T21:38:36.523Z,3.53
2018-06-05T21:41:05.349Z,3.77
2018-06-05T21:43:34.168Z,3.37
2018-06-05T21:46:03.068Z,3.83
2018-06-05T21:48:31.518Z,3.97
2018-06-05T21:51:00.321Z,4.10
2018-06-05T21:53:28.994Z,3.70
2018-06-05T21:55:57.731Z,3.10
2018-06-05T21:58:26.681Z,3.50
2018-06-05T22:00:55.586Z,3.20
2018-06-05T22:03:24.522Z,3.07
2018-06-05T22:05:53.271Z,3.40
2018-06-05T22:08:22.002Z,3.20
2018-06-05T22:10:50.832Z,3.13
2018-06-05T22:13:19.686Z,2.83
2018-06-05T22:15:48.564Z,3.33
2018-06-05T22:18:17.016Z,3.30
2018-06-05T22:20:46.070Z,3.03
2018-06-05T22:23:14.922Z,2.80
2018-06-05T22:25:43.651Z,2.40
2018-06-05T22:28:12.586Z,2.90
2018-06-05T22:30:41.468Z,2.47
2018-06-05T22:33:10.290Z,2.70
2018-06-05T22:35:39.226Z,2.00
2018-06-05T22:38:07.920Z,1.90
2018-06-05T22:40:36.571Z,1.43
2018-06-05T22:43:05.350Z,1.70
2018-06-05T22:45:33.753Z,1.40
2018-06-05T22:48:02.471Z,1.40
2018-06-05T22:50:31.203Z,1.30
2018-06-05T22:52:59.919Z,1.30
2018-06-05T22:55:28.746Z,1.30
2018-06-05T22:57:57.534Z,1.40
2018-06-05T23:00:32.614Z,1.13
2018-06-05T23:03:01.590Z,1.37
2018-06-05T23:05:30.554Z,1.30
2018-06-05T23:07:59.854Z,1.20
2018-06-05T23:10:28.727Z,1.10
2018-06-05T23:12:57.500Z,1.37
2018-06-05T23:15:26.318Z,1.10
2018-06-05T23:17:55.132Z,1.10
2018-06-05T23:20:24.318Z,1.20
2018-06-05T23:22:53.276Z,1.17
2018-06-05T23:25:22.734Z,1.20
2018-06-05T23:27:51.717Z,1.27
2018-06-05T23:30:20.530Z,1.20
2018-06-05T23:32:49.087Z,1.30
2018-06-05T23:35:17.886Z,1.20
2018-06-05T23:37:46.696Z,1.13
2018-06-05T23:40:15.648Z,1.27
2018-06-05T23:42:44.495Z,1.20
2018-06-05T23:45:13.390Z,1.23
2018-06-05T23:47:41.769Z,1.20
2018-06-05T23:50:10.489Z,1.30
2018-06-05T23:52:38.901Z,1.57
2018-06-05T23:55:07.792Z,1.20
2018-06-05T23:57:36.667Z,1.33
